sensor_id;sensor_type;location;lat;lon;timestamp;pressure;altitude;pressure_sealevel;temperature;humidity
8637;BME280;4356;49.068;8.658;2023-02-12T00:02:17;101938.56;;;16.77;33.11
8637;BME280;4356;49.068;8.658;2023-02-12T00:04:43;101940.75;;;16.73;33.10
8637;BME280;4356;49.068;8.658;2023-02-12T00:07:09;101927.16;;;16.73;33.42
8637;BME280;4356;49.068;8.658;2023-02-12T00:09:38;101933.47;;;16.74;33.18
8637;BME280;4356;49.068;8.658;2023-02-12T00:12:03;101919.66;;;16.67;33.13
8637;BME280;4356;49.068;8.658;2023-02-12T00:14:29;101910.47;;;16.60;33.28
8637;BME280;4356;49.068;8.658;2023-02-12T00:16:55;101898.88;;;16.50;33.19
8637;BME280;4356;49.068;8.658;2023-02-12T00:19:20;101900.41;;;16.53;33.14
8637;BME280;4356;49.068;8.658;2023-02-12T00:21:47;101914.66;;;16.55;33.26
8637;BME280;4356;49.068;8.658;2023-02-12T00:24:12;101929.13;;;16.63;33.07
8637;BME280;4356;49.068;8.658;2023-02-12T00:26:38;101910.78;;;16.57;33.33
8637;BME280;4356;49.068;8.658;2023-02-12T00:29:04;101920.16;;;16.63;33.09
8637;BME280;4356;49.068;8.658;2023-02-12T00:31:30;101936.63;;;16.69;33.21
8637;BME280;4356;49.068;8.658;2023-02-12T00:33:57;101920.63;;;16.58;33.33
8637;BME280;4356;49.068;8.658;2023-02-12T00:36:25;101916.06;;;16.59;33.31
8637;BME280;4356;49.068;8.658;2023-02-12T00:38:53;101911.94;;;16.55;33.06
8637;BME280;4356;49.068;8.658;2023-02-12T00:41:20;101945.81;;;16.68;33.37
8637;BME280;4356;49.068;8.658;2023-02-12T00:43:46;101954.94;;;16.67;33.31
8637;BME280;4356;49.068;8.658;2023-02-12T00:46:13;101956.13;;;16.65;33.36
8637;BME280;4356;49.068;8.658;2023-02-12T00:48:39;101943.03;;;16.60;33.37
8637;BME280;4356;49.068;8.658;2023-02-12T00:51:05;101951.72;;;16.64;33.46
8637;BME280;4356;49.068;8.658;2023-02-12T00:53:31;101940.81;;;16.56;33.40
8637;BME280;4356;49.068;8.658;2023-02-12T00:55:57;101953.44;;;16.65;33.52
8637;BME280;4356;49.068;8.658;2023-02-12T00:58:23;101940.81;;;16.56;33.25
8637;BME280;4356;49.068;8.658;2023-02-12T01:00:49;101949.84;;;16.64;33.55
8637;BME280;4356;49.068;8.658;2023-02-12T01:03:15;101947.59;;;16.60;33.71
8637;BME280;4356;49.068;8.658;2023-02-12T01:05:41;101951.16;;;16.52;33.51
8637;BME280;4356;49.068;8.658;2023-02-12T01:08:09;101961.03;;;16.61;33.36
8637;BME280;4356;49.068;8.658;2023-02-12T01:10:35;101964.59;;;16.62;33.54
8637;BME280;4356;49.068;8.658;2023-02-12T01:13:01;101944.31;;;16.48;33.28
8637;BME280;4356;49.068;8.658;2023-02-12T01:15:29;101969.31;;;16.60;33.46
8637;BME280;4356;49.068;8.658;2023-02-12T01:17:55;101964.75;;;16.60;33.42
8637;BME280;4356;49.068;8.658;2023-02-12T01:20:22;101951.44;;;16.49;33.40
8637;BME280;4356;49.068;8.658;2023-02-12T01:22:49;101928.97;;;16.39;33.43
8637;BME280;4356;49.068;8.658;2023-02-12T01:25:15;101934.41;;;16.39;33.48
8637;BME280;4356;49.068;8.658;2023-02-12T01:27:41;101956.56;;;16.52;33.40
8637;BME280;4356;49.068;8.658;2023-02-12T01:30:10;101938.91;;;16.48;33.54
8637;BME280;4356;49.068;8.658;2023-02-12T01:32:36;101948.44;;;16.52;33.35
8637;BME280;4356;49.068;8.658;2023-02-12T01:35:02;101955.38;;;16.55;33.51
8637;BME280;4356;49.068;8.658;2023-02-12T01:37:28;101956.25;;;16.55;33.48
8637;BME280;4356;49.068;8.658;2023-02-12T01:39:53;101953.38;;;16.57;33.57
8637;BME280;4356;49.068;8.658;2023-02-12T01:42:19;101953.53;;;16.55;33.68
8637;BME280;4356;49.068;8.658;2023-02-12T01:47:38;101953.84;;;16.52;33.43
8637;BME280;4356;49.068;8.658;2023-02-12T01:50:06;101957.25;;;16.54;33.43
8637;BME280;4356;49.068;8.658;2023-02-12T01:52:33;101959.94;;;16.54;33.49
8637;BME280;4356;49.068;8.658;2023-02-12T01:55:02;101952.84;;;16.53;33.53
8637;BME280;4356;49.068;8.658;2023-02-12T01:57:31;101926.09;;;16.40;33.50
8637;BME280;4356;49.068;8.658;2023-02-12T02:00:00;101927.78;;;16.41;33.61
8637;BME280;4356;49.068;8.658;2023-02-12T02:02:27;101942.31;;;16.50;33.45
8637;BME280;4356;49.068;8.658;2023-02-12T02:04:57;101946.00;;;16.49;33.50
8637;BME280;4356;49.068;8.658;2023-02-12T02:07:23;101946.72;;;16.51;33.63
8637;BME280;4356;49.068;8.658;2023-02-12T02:09:49;101943.13;;;16.51;33.67
8637;BME280;4356;49.068;8.658;2023-02-12T02:12:15;101941.44;;;16.50;33.70
8637;BME280;4356;49.068;8.658;2023-02-12T02:15:01;101939.31;;;16.43;33.69
8637;BME280;4356;49.068;8.658;2023-02-12T02:28:32;101934.59;;;16.45;33.69
8637;BME280;4356;49.068;8.658;2023-02-12T02:31:08;101937.47;;;16.44;33.59
8637;BME280;4356;49.068;8.658;2023-02-12T02:33:54;101930.50;;;16.41;33.74
8637;BME280;4356;49.068;8.658;2023-02-12T02:36:30;101927.13;;;16.39;33.63
8637;BME280;4356;49.068;8.658;2023-02-12T02:39:08;101920.81;;;16.39;33.73
8637;BME280;4356;49.068;8.658;2023-02-12T02:41:45;101931.34;;;16.42;33.53
8637;BME280;4356;49.068;8.658;2023-02-12T02:44:17;101919.28;;;16.36;33.70
8637;BME280;4356;49.068;8.658;2023-02-12T02:46:48;101927.41;;;16.36;33.57
8637;BME280;4356;49.068;8.658;2023-02-12T02:49:22;101920.66;;;16.40;33.71
8637;BME280;4356;49.068;8.658;2023-02-12T02:51:52;101911.78;;;16.30;34.01
8637;BME280;4356;49.068;8.658;2023-02-12T02:54:39;101935.25;;;16.39;33.82
8637;BME280;4356;49.068;8.658;2023-02-12T02:57:23;101927.94;;;16.40;33.86
8637;BME280;4356;49.068;8.658;2023-02-12T02:59:57;101921.28;;;16.34;33.75
8637;BME280;4356;49.068;8.658;2023-02-12T03:02:31;101923.69;;;16.37;33.65
8637;BME280;4356;49.068;8.658;2023-02-12T03:05:14;101924.41;;;16.39;33.78
8637;BME280;4356;49.068;8.658;2023-02-12T03:07:51;101918.56;;;16.34;33.82
8637;BME280;4356;49.068;8.658;2023-02-12T03:10:28;101925.72;;;16.35;33.80
8637;BME280;4356;49.068;8.658;2023-02-12T03:13:04;101924.53;;;16.38;33.81
8637;BME280;4356;49.068;8.658;2023-02-12T03:15:48;101918.56;;;16.34;33.77
8637;BME280;4356;49.068;8.658;2023-02-12T03:18:22;101924.69;;;16.36;33.92
8637;BME280;4356;49.068;8.658;2023-02-12T03:21:00;101921.97;;;16.36;33.72
8637;BME280;4356;49.068;8.658;2023-02-12T03:23:31;101921.78;;;16.30;33.93
8637;BME280;4356;49.068;8.658;2023-02-12T03:26:06;101928.59;;;16.34;34.00
8637;BME280;4356;49.068;8.658;2023-02-12T03:28:35;101925.88;;;16.34;33.86
8637;BME280;4356;49.068;8.658;2023-02-12T03:33:53;101922.16;;;16.35;33.84
8637;BME280;4356;49.068;8.658;2023-02-12T03:36:41;101919.06;;;16.30;33.75
8637;BME280;4356;49.068;8.658;2023-02-12T03:39:19;101923.63;;;16.29;33.76
8637;BME280;4356;49.068;8.658;2023-02-12T03:42:10;101916.00;;;16.25;33.98
8637;BME280;4356;49.068;8.658;2023-02-12T03:47:48;101928.69;;;16.24;33.61
8637;BME280;4356;49.068;8.658;2023-02-12T03:52:53;101928.91;;;16.31;33.59
8637;BME280;4356;49.068;8.658;2023-02-12T03:55:19;101918.00;;;16.23;33.94
8637;BME280;4356;49.068;8.658;2023-02-12T03:57:49;101924.78;;;16.27;33.96
8637;BME280;4356;49.068;8.658;2023-02-12T04:00:20;101931.06;;;16.27;33.78
8637;BME280;4356;49.068;8.658;2023-02-12T04:02:46;101916.78;;;16.17;33.92
8637;BME280;4356;49.068;8.658;2023-02-12T04:05:20;101939.06;;;16.29;33.86
8637;BME280;4356;49.068;8.658;2023-02-12T04:07:46;101943.66;;;16.28;33.98
8637;BME280;4356;49.068;8.658;2023-02-12T04:10:13;101939.38;;;16.26;33.77
8637;BME280;4356;49.068;8.658;2023-02-12T04:18:19;101936.84;;;16.24;34.17
8637;BME280;4356;49.068;8.658;2023-02-12T04:21:06;101946.50;;;16.27;33.83
8637;BME280;4356;49.068;8.658;2023-02-12T04:24:02;101951.94;;;16.27;34.02
8637;BME280;4356;49.068;8.658;2023-02-12T04:26:40;101949.38;;;16.25;33.95
8637;BME280;4356;49.068;8.658;2023-02-12T04:29:47;101956.69;;;16.25;33.97
8637;BME280;4356;49.068;8.658;2023-02-12T04:32:19;101962.13;;;16.25;33.80
8637;BME280;4356;49.068;8.658;2023-02-12T04:40:26;101960.88;;;16.19;33.86
8637;BME280;4356;49.068;8.658;2023-02-12T04:42:52;101958.88;;;16.21;33.74
8637;BME280;4356;49.068;8.658;2023-02-12T04:45:25;101963.44;;;16.21;33.90
8637;BME280;4356;49.068;8.658;2023-02-12T04:47:51;101959.47;;;16.15;34.10
8637;BME280;4356;49.068;8.658;2023-02-12T04:50:17;101962.56;;;16.20;34.09
8637;BME280;4356;49.068;8.658;2023-02-12T04:52:43;101959.00;;;16.20;34.16
8637;BME280;4356;49.068;8.658;2023-02-12T04:55:09;101964.41;;;16.20;34.17
8637;BME280;4356;49.068;8.658;2023-02-12T04:57:34;101949.50;;;16.16;34.09
8637;BME280;4356;49.068;8.658;2023-02-12T05:00:00;101954.44;;;16.20;34.05
8637;BME280;4356;49.068;8.658;2023-02-12T05:02:25;101938.56;;;16.08;34.14
8637;BME280;4356;49.068;8.658;2023-02-12T05:04:51;101955.44;;;16.19;34.10
8637;BME280;4356;49.068;8.658;2023-02-12T05:07:17;101946.25;;;16.12;33.90
8637;BME280;4356;49.068;8.658;2023-02-12T05:09:42;101948.31;;;16.18;33.82
8637;BME280;4356;49.068;8.658;2023-02-12T05:12:08;101938.25;;;16.11;34.07
8637;BME280;4356;49.068;8.658;2023-02-12T05:14:33;101951.88;;;16.19;33.86
8637;BME280;4356;49.068;8.658;2023-02-12T05:16:59;101951.72;;;16.20;34.11
8637;BME280;4356;49.068;8.658;2023-02-12T05:19:25;101934.00;;;16.08;33.90
8637;BME280;4356;49.068;8.658;2023-02-12T05:21:50;101944.06;;;16.16;33.91
8637;BME280;4356;49.068;8.658;2023-02-12T05:24:16;101940.34;;;16.17;33.83
8637;BME280;4356;49.068;8.658;2023-02-12T05:26:42;101933.50;;;16.13;33.88
8637;BME280;4356;49.068;8.658;2023-02-12T05:29:08;101920.72;;;16.05;34.11
8637;BME280;4356;49.068;8.658;2023-02-12T05:31:34;101935.22;;;16.14;34.12
8637;BME280;4356;49.068;8.658;2023-02-12T05:34:00;101930.97;;;16.11;33.72
8637;BME280;4356;49.068;8.658;2023-02-12T05:36:26;101942.34;;;16.15;34.06
8637;BME280;4356;49.068;8.658;2023-02-12T05:38:55;101945.22;;;16.13;33.79
8637;BME280;4356;49.068;8.658;2023-02-12T05:41:22;101945.06;;;16.15;34.29
8637;BME280;4356;49.068;8.658;2023-02-12T05:43:49;101932.59;;;16.04;33.96
8637;BME280;4356;49.068;8.658;2023-02-12T05:46:16;101934.28;;;16.05;33.90
8637;BME280;4356;49.068;8.658;2023-02-12T05:48:42;101935.00;;;16.07;33.91
8637;BME280;4356;49.068;8.658;2023-02-12T05:51:08;101947.78;;;16.15;33.87
8637;BME280;4356;49.068;8.658;2023-02-12T05:53:36;101947.22;;;16.11;33.96
8637;BME280;4356;49.068;8.658;2023-02-12T05:56:46;101938.41;;;16.09;33.96
8637;BME280;4356;49.068;8.658;2023-02-12T05:59:15;101947.22;;;16.11;34.46
8637;BME280;4356;49.068;8.658;2023-02-12T06:01:43;101951.50;;;16.14;34.33
8637;BME280;4356;49.068;8.658;2023-02-12T06:04:14;101951.81;;;16.11;34.32
8637;BME280;4356;49.068;8.658;2023-02-12T06:06:40;101953.53;;;16.12;34.25
8637;BME280;4356;49.068;8.658;2023-02-12T06:09:07;101952.66;;;16.11;34.01
8637;BME280;4356;49.068;8.658;2023-02-12T06:11:33;101946.38;;;16.11;33.91
8637;BME280;4356;49.068;8.658;2023-02-12T06:14:03;101950.09;;;16.10;34.11
8637;BME280;4356;49.068;8.658;2023-02-12T06:16:30;101932.75;;;16.03;33.95
8637;BME280;4356;49.068;8.658;2023-02-12T06:18:56;101939.59;;;16.07;34.00
8637;BME280;4356;49.068;8.658;2023-02-12T06:21:23;101949.41;;;16.08;34.18
8637;BME280;4356;49.068;8.658;2023-02-12T06:23:49;101955.38;;;16.11;33.99
8637;BME280;4356;49.068;8.658;2023-02-12T06:26:16;101960.97;;;16.10;33.91
8637;BME280;4356;49.068;8.658;2023-02-12T06:28:42;101936.09;;;15.97;33.98
8637;BME280;4356;49.068;8.658;2023-02-12T06:31:28;101944.06;;;15.98;34.27
8637;BME280;4356;49.068;8.658;2023-02-12T06:33:56;101966.00;;;16.05;34.08
8637;BME280;4356;49.068;8.658;2023-02-12T06:36:23;101967.53;;;16.07;34.09
8637;BME280;4356;49.068;8.658;2023-02-12T06:38:49;101967.47;;;15.99;34.19
8637;BME280;4356;49.068;8.658;2023-02-12T06:41:15;101972.22;;;15.97;34.02
8637;BME280;4356;49.068;8.658;2023-02-12T06:43:41;101992.97;;;16.06;34.25
8637;BME280;4356;49.068;8.658;2023-02-12T06:46:07;101981.09;;;16.07;34.02
8637;BME280;4356;49.068;8.658;2023-02-12T06:48:33;101983.28;;;16.04;34.25
8637;BME280;4356;49.068;8.658;2023-02-12T06:51:18;101982.41;;;16.03;34.29
8637;BME280;4356;49.068;8.658;2023-02-12T06:53:46;101968.25;;;15.92;34.15
8637;BME280;4356;49.068;8.658;2023-02-12T06:56:12;101971.66;;;15.94;34.27
8637;BME280;4356;49.068;8.658;2023-02-12T06:58:41;101983.44;;;16.02;33.92
8637;BME280;4356;49.068;8.658;2023-02-12T07:01:18;101986.84;;;16.04;34.45
8637;BME280;4356;49.068;8.658;2023-02-12T07:03:54;101994.97;;;16.04;34.23
8637;BME280;4356;49.068;8.658;2023-02-12T07:06:21;101993.25;;;16.03;34.25
8637;BME280;4356;49.068;8.658;2023-02-12T07:08:47;101984.75;;;15.98;34.19
8637;BME280;4356;49.068;8.658;2023-02-12T07:11:14;102002.25;;;16.04;34.42
8637;BME280;4356;49.068;8.658;2023-02-12T07:13:40;101997.00;;;16.02;34.28
8637;BME280;4356;49.068;8.658;2023-02-12T07:16:10;101994.28;;;16.02;34.23
8637;BME280;4356;49.068;8.658;2023-02-12T07:18:37;101998.69;;;16.03;34.21
8637;BME280;4356;49.068;8.658;2023-02-12T07:21:05;101997.00;;;16.02;34.17
8637;BME280;4356;49.068;8.658;2023-02-12T07:23:31;101993.41;;;16.02;34.46
8637;BME280;4356;49.068;8.658;2023-02-12T07:25:58;101994.28;;;16.02;34.31
8637;BME280;4356;49.068;8.658;2023-02-12T07:28:24;101990.16;;;15.98;34.46
8637;BME280;4356;49.068;8.658;2023-02-12T07:30:50;101997.84;;;16.03;34.31
8637;BME280;4356;49.068;8.658;2023-02-12T07:33:16;101998.03;;;16.01;34.23
8637;BME280;4356;49.068;8.658;2023-02-12T07:35:41;101994.75;;;15.98;34.53
8637;BME280;4356;49.068;8.658;2023-02-12T07:38:07;101995.31;;;16.01;34.06
8637;BME280;4356;49.068;8.658;2023-02-12T07:40:33;101978.25;;;15.91;34.33
8637;BME280;4356;49.068;8.658;2023-02-12T07:42:58;101991.72;;;16.01;34.53
8637;BME280;4356;49.068;8.658;2023-02-12T07:45:24;101960.19;;;15.82;34.42
8637;BME280;4356;49.068;8.658;2023-02-12T07:47:50;101987.09;;;15.93;34.55
8637;BME280;4356;49.068;8.658;2023-02-12T07:50:16;101980.25;;;15.89;34.36
8637;BME280;4356;49.068;8.658;2023-02-12T07:52:42;101989.19;;;15.99;34.37
8637;BME280;4356;49.068;8.658;2023-02-12T07:55:08;101990.34;;;15.97;34.50
8637;BME280;4356;49.068;8.658;2023-02-12T07:57:34;101984.91;;;15.97;34.34
8637;BME280;4356;49.068;8.658;2023-02-12T08:00:00;101988.16;;;16.00;34.39
8637;BME280;4356;49.068;8.658;2023-02-12T08:02:25;101994.28;;;16.02;34.49
8637;BME280;4356;49.068;8.658;2023-02-12T08:04:55;101982.19;;;15.97;34.38
8637;BME280;4356;49.068;8.658;2023-02-12T08:07:21;101993.59;;;16.00;34.53
8637;BME280;4356;49.068;8.658;2023-02-12T08:09:46;101997.16;;;16.01;34.59
8637;BME280;4356;49.068;8.658;2023-02-12T08:12:12;101985.59;;;15.99;34.30
8637;BME280;4356;49.068;8.658;2023-02-12T08:14:37;101994.28;;;16.02;34.36
8637;BME280;4356;49.068;8.658;2023-02-12T08:17:06;101989.88;;;16.01;34.31
8637;BME280;4356;49.068;8.658;2023-02-12T08:19:33;101972.50;;;15.94;34.36
8637;BME280;4356;49.068;8.658;2023-02-12T08:21:59;101992.28;;;16.04;34.26
8637;BME280;4356;49.068;8.658;2023-02-12T08:24:26;101982.41;;;16.03;34.52
8637;BME280;4356;49.068;8.658;2023-02-12T08:26:52;101990.56;;;16.03;34.70
8637;BME280;4356;49.068;8.658;2023-02-12T08:29:26;101982.91;;;15.99;34.82
8637;BME280;4356;49.068;8.658;2023-02-12T08:31:57;101992.28;;;16.04;34.56
8637;BME280;4356;49.068;8.658;2023-02-12T08:34:28;101984.47;;;16.01;34.62
8637;BME280;4356;49.068;8.658;2023-02-12T08:36:55;101988.84;;;16.02;34.64
8637;BME280;4356;49.068;8.658;2023-02-12T08:39:22;101993.25;;;16.03;34.81
8637;BME280;4356;49.068;8.658;2023-02-12T08:41:48;102004.53;;;16.08;34.47
8637;BME280;4356;49.068;8.658;2023-02-12T08:44:15;102008.06;;;16.09;34.53
8637;BME280;4356;49.068;8.658;2023-02-12T08:46:46;102007.06;;;16.10;34.82
8637;BME280;4356;49.068;8.658;2023-02-12T08:49:21;101999.09;;;16.08;34.53
8637;BME280;4356;49.068;8.658;2023-02-12T08:51:49;102001.50;;;16.11;34.63
8637;BME280;4356;49.068;8.658;2023-02-12T08:54:20;102000.78;;;16.09;34.83
8637;BME280;4356;49.068;8.658;2023-02-12T08:56:46;102004.53;;;16.08;34.37
8637;BME280;4356;49.068;8.658;2023-02-12T08:59:14;102014.72;;;16.14;34.82
8637;BME280;4356;49.068;8.658;2023-02-12T09:01:41;102009.47;;;16.13;34.48
8637;BME280;4356;49.068;8.658;2023-02-12T09:04:11;102010.31;;;16.13;34.55
8637;BME280;4356;49.068;8.658;2023-02-12T09:06:39;102007.63;;;16.13;34.48
8637;BME280;4356;49.068;8.658;2023-02-12T09:09:05;102016.44;;;16.15;34.43
8637;BME280;4356;49.068;8.658;2023-02-12T09:11:33;101987.84;;;16.03;34.63
8637;BME280;4356;49.068;8.658;2023-02-12T09:14:04;102013.41;;;16.18;34.61
8637;BME280;4356;49.068;8.658;2023-02-12T09:16:34;102010.88;;;16.17;34.73
8637;BME280;4356;49.068;8.658;2023-02-12T09:19:00;102015.25;;;16.18;34.48
8637;BME280;4356;49.068;8.658;2023-02-12T09:21:26;102011.03;;;16.15;34.66
8637;BME280;4356;49.068;8.658;2023-02-12T09:23:55;101994.13;;;16.04;34.54
8637;BME280;4356;49.068;8.658;2023-02-12T09:26:22;102014.72;;;16.14;34.89
8637;BME280;4356;49.068;8.658;2023-02-12T09:28:50;101990.56;;;16.03;34.67
8637;BME280;4356;49.068;8.658;2023-02-12T09:31:19;102009.84;;;16.18;34.60
8637;BME280;4356;49.068;8.658;2023-02-12T09:33:47;102013.41;;;16.18;34.78
8637;BME280;4356;49.068;8.658;2023-02-12T09:36:14;102022.78;;;16.24;34.63
8637;BME280;4356;49.068;8.658;2023-02-12T09:38:41;102017.53;;;16.22;34.74
8637;BME280;4356;49.068;8.658;2023-02-12T09:44:19;102028.75;;;16.27;34.57
8637;BME280;4356;49.068;8.658;2023-02-12T09:47:02;102026.03;;;16.27;34.99
8637;BME280;4356;49.068;8.658;2023-02-12T09:52:03;102017.91;;;16.27;34.79
8637;BME280;4356;49.068;8.658;2023-02-12T09:54:37;102018.75;;;16.28;34.72
8637;BME280;4356;49.068;8.658;2023-02-12T09:57:20;102023.69;;;16.32;34.71
8637;BME280;4356;49.068;8.658;2023-02-12T09:59:53;102022.88;;;16.32;34.78
8637;BME280;4356;49.068;8.658;2023-02-12T10:02:22;102021.84;;;16.33;34.72
8637;BME280;4356;49.068;8.658;2023-02-12T10:04:50;102009.31;;;16.32;34.79
8637;BME280;4356;49.068;8.658;2023-02-12T10:10:51;102018.69;;;16.37;34.58
8637;BME280;4356;49.068;8.658;2023-02-12T10:21:57;102019.38;;;16.39;34.61
8637;BME280;4356;49.068;8.658;2023-02-12T10:27:16;102004.41;;;16.35;34.76
8637;BME280;4356;49.068;8.658;2023-02-12T10:29:45;102009.19;;;16.41;34.49
8637;BME280;4356;49.068;8.658;2023-02-12T10:32:30;102011.63;;;16.44;34.68
8637;BME280;4356;49.068;8.658;2023-02-12T10:34:58;102021.44;;;16.45;34.49
8637;BME280;4356;49.068;8.658;2023-02-12T10:37:41;102012.31;;;16.46;34.62
8637;BME280;4356;49.068;8.658;2023-02-12T10:40:21;101997.34;;;16.42;34.46
8637;BME280;4356;49.068;8.658;2023-02-12T10:42:49;102008.59;;;16.48;34.26
8637;BME280;4356;49.068;8.658;2023-02-12T10:45:19;101994.09;;;16.39;34.36
8637;BME280;4356;49.068;8.658;2023-02-12T10:47:46;101992.38;;;16.38;34.41
8637;BME280;4356;49.068;8.658;2023-02-12T10:50:27;102001.69;;;16.53;34.32
8637;BME280;4356;49.068;8.658;2023-02-12T10:53:00;102008.81;;;16.54;34.41
8637;BME280;4356;49.068;8.658;2023-02-12T10:55:34;102003.38;;;16.54;34.63
8637;BME280;4356;49.068;8.658;2023-02-12T10:58:04;102001.53;;;16.55;34.34
8637;BME280;4356;49.068;8.658;2023-02-12T11:00:41;101996.09;;;16.55;34.66
8637;BME280;4356;49.068;8.658;2023-02-12T11:05:37;101984.25;;;16.56;34.37
8637;BME280;4356;49.068;8.658;2023-02-12T11:08:04;101989.34;;;16.59;34.53
8637;BME280;4356;49.068;8.658;2023-02-12T11:10:38;101983.91;;;16.59;34.64
8637;BME280;4356;49.068;8.658;2023-02-12T11:13:05;101971.31;;;16.50;34.64
8637;BME280;4356;49.068;8.658;2023-02-12T11:15:47;101972.19;;;16.58;34.52
8637;BME280;4356;49.068;8.658;2023-02-12T11:18:30;101982.59;;;16.63;34.56
8637;BME280;4356;49.068;8.658;2023-02-12T11:21:08;101979.88;;;16.63;34.57
8637;BME280;4356;49.068;8.658;2023-02-12T11:23:38;101983.13;;;16.66;34.53
8637;BME280;4356;49.068;8.658;2023-02-12T11:26:23;101975.44;;;16.62;34.98
8637;BME280;4356;49.068;8.658;2023-02-12T11:31:27;101963.44;;;16.64;34.49
8637;BME280;4356;49.068;8.658;2023-02-12T11:36:48;101968.34;;;16.69;34.95
8637;BME280;4356;49.068;8.658;2023-02-12T11:39:25;101970.78;;;16.72;34.74
8637;BME280;4356;49.068;8.658;2023-02-12T11:41:55;101966.22;;;16.72;34.46
8637;BME280;4356;49.068;8.658;2023-02-12T11:44:27;101965.19;;;16.73;34.80
8637;BME280;4356;49.068;8.658;2023-02-12T11:46:59;101958.72;;;16.74;34.63
8637;BME280;4356;49.068;8.658;2023-02-12T11:49:32;101949.41;;;16.77;34.85
8637;BME280;4356;49.068;8.658;2023-02-12T11:52:00;101953.47;;;16.73;34.94
8637;BME280;4356;49.068;8.658;2023-02-12T11:54:38;101955.00;;;16.75;34.62
8637;BME280;4356;49.068;8.658;2023-02-12T11:57:05;101933.22;;;16.67;34.82
8637;BME280;4356;49.068;8.658;2023-02-12T11:59:35;101946.22;;;16.81;34.60
8637;BME280;4356;49.068;8.658;2023-02-12T12:02:13;101936.88;;;16.76;34.64
8637;BME280;4356;49.068;8.658;2023-02-12T12:04:40;101939.94;;;16.81;34.48
8637;BME280;4356;49.068;8.658;2023-02-12T12:07:15;101939.94;;;16.81;35.03
8637;BME280;4356;49.068;8.658;2023-02-12T12:09:50;101948.44;;;16.86;34.92
8637;BME280;4356;49.068;8.658;2023-02-12T12:15:02;101943.00;;;16.86;34.73
8637;BME280;4356;49.068;8.658;2023-02-12T12:17:59;101941.69;;;16.90;34.66
8637;BME280;4356;49.068;8.658;2023-02-12T12:21:00;101931.97;;;16.87;34.49
8637;BME280;4356;49.068;8.658;2023-02-12T12:23:34;101933.84;;;16.87;35.03
8637;BME280;4356;49.068;8.658;2023-02-12T12:26:17;101936.09;;;16.91;34.94
8637;BME280;4356;49.068;8.658;2023-02-12T12:31:42;101927.75;;;16.93;34.78
8637;BME280;4356;49.068;8.658;2023-02-12T12:48:22;101921.53;;;17.00;34.79
8637;BME280;4356;49.068;8.658;2023-02-12T13:09:32;101888.44;;;17.13;34.84
8637;BME280;4356;49.068;8.658;2023-02-12T13:15:14;101876.41;;;17.15;35.09
8637;BME280;4356;49.068;8.658;2023-02-12T13:18:08;101874.53;;;17.16;34.92
8637;BME280;4356;49.068;8.658;2023-02-12T13:23:16;101860.81;;;17.17;34.80
8637;BME280;4356;49.068;8.658;2023-02-12T13:28:36;101868.44;;;17.22;34.57
8637;BME280;4356;49.068;8.658;2023-02-12T13:31:11;101858.09;;;17.25;34.91
8637;BME280;4356;49.068;8.658;2023-02-12T13:33:47;101855.03;;;17.28;34.98
8637;BME280;4356;49.068;8.658;2023-02-12T13:36:14;101853.84;;;17.31;34.39
8637;BME280;4356;49.068;8.658;2023-02-12T13:41:16;101857.78;;;17.36;34.87
8637;BME280;4356;49.068;8.658;2023-02-12T13:46:55;101853.53;;;17.42;34.66
8637;BME280;4356;49.068;8.658;2023-02-12T13:52:17;101843.34;;;17.44;34.18
8637;BME280;4356;49.068;8.658;2023-02-12T13:54:52;101849.47;;;17.46;34.38
8637;BME280;4356;49.068;8.658;2023-02-12T13:57:20;101837.59;;;17.47;34.30
8637;BME280;4356;49.068;8.658;2023-02-12T13:59:50;101847.81;;;17.53;34.30
8637;BME280;4356;49.068;8.658;2023-02-12T14:02:40;101831.66;;;17.52;34.77
8637;BME280;4356;49.068;8.658;2023-02-12T14:05:14;101843.56;;;17.59;34.74
8637;BME280;4356;49.068;8.658;2023-02-12T14:07:44;101841.53;;;17.61;34.45
8637;BME280;4356;49.068;8.658;2023-02-12T14:13:24;101830.13;;;17.57;34.43
8637;BME280;4356;49.068;8.658;2023-02-12T14:15:55;101830.28;;;17.64;34.47
8637;BME280;4356;49.068;8.658;2023-02-12T14:23:43;101830.63;;;17.69;34.23
8637;BME280;4356;49.068;8.658;2023-02-12T14:26:16;101832.84;;;17.73;34.48
8637;BME280;4356;49.068;8.658;2023-02-12T14:28:52;101834.53;;;17.74;34.51
8637;BME280;4356;49.068;8.658;2023-02-12T14:31:28;101842.53;;;17.76;34.26
8637;BME280;4356;49.068;8.658;2023-02-12T14:39:03;101833.88;;;17.80;34.20
8637;BME280;4356;49.068;8.658;2023-02-12T14:41:32;101830.09;;;17.81;34.18
8637;BME280;4356;49.068;8.658;2023-02-12T14:46:51;101826.38;;;17.82;34.14
8637;BME280;4356;49.068;8.658;2023-02-12T14:49:29;101821.78;;;17.83;33.99
8637;BME280;4356;49.068;8.658;2023-02-12T14:51:58;101830.13;;;17.89;33.84
8637;BME280;4356;49.068;8.658;2023-02-12T14:54:42;101827.22;;;17.91;34.01
8637;BME280;4356;49.068;8.658;2023-02-12T14:57:31;101810.41;;;17.87;34.12
8637;BME280;4356;49.068;8.658;2023-02-12T15:08:34;101821.44;;;17.94;34.11
8637;BME280;4356;49.068;8.658;2023-02-12T15:11:22;101822.78;;;17.98;34.26
8637;BME280;4356;49.068;8.658;2023-02-12T15:14:04;101818.19;;;17.98;34.08
8637;BME280;4356;49.068;8.658;2023-02-12T15:16:37;101818.88;;;18.00;34.00
8637;BME280;4356;49.068;8.658;2023-02-12T15:19:30;101804.25;;;18.01;34.11
8637;BME280;4356;49.068;8.658;2023-02-12T15:21:58;101799.84;;;18.00;33.57
8637;BME280;4356;49.068;8.658;2023-02-12T15:24:26;101806.63;;;18.04;33.86
8637;BME280;4356;49.068;8.658;2023-02-12T15:27:00;101797.78;;;18.02;34.24
8637;BME280;4356;49.068;8.658;2023-02-12T15:29:29;101794.91;;;18.04;34.04
8637;BME280;4356;49.068;8.658;2023-02-12T15:32:04;101793.69;;;18.06;33.79
8637;BME280;4356;49.068;8.658;2023-02-12T15:34:33;101800.66;;;18.09;33.68
8637;BME280;4356;49.068;8.658;2023-02-12T15:37:02;101792.00;;;18.05;33.76
8637;BME280;4356;49.068;8.658;2023-02-12T15:39:47;101795.22;;;18.09;33.73
8637;BME280;4356;49.068;8.658;2023-02-12T15:47:32;101794.03;;;18.11;33.50
8637;BME280;4356;49.068;8.658;2023-02-12T15:49:59;101790.63;;;18.09;33.83
8637;BME280;4356;49.068;8.658;2023-02-12T15:52:33;101797.44;;;18.13;33.81
8637;BME280;4356;49.068;8.658;2023-02-12T15:55:02;101796.56;;;18.13;33.60
8637;BME280;4356;49.068;8.658;2023-02-12T15:57:30;101783.66;;;18.07;33.60